createdAt,value
2018-08-31T00:02:12.103Z,98559.59
2018-08-31T00:06:01.508Z,98562.70
2018-08-31T00:09:05.888Z,98557.55
2018-08-31T00:11:48.234Z,98555.91
2018-08-31T00:14:18.031Z,98547.36
2018-08-31T00:16:47.612Z,98542.58
2018-08-31T00:19:17.467Z,98539.22
2018-08-31T00:21:47.222Z,98547.77
2018-08-31T00:24:33.654Z,98540.63
2018-08-31T00:27:20.326Z,98533.53
2018-08-31T00:30:06.830Z,98530.34
2018-08-31T00:33:06.697Z,98530.48
2018-08-31T00:37:56.791Z,98526.03
2018-08-31T00:41:03.830Z,98528.11
2018-08-31T00:45:44.541Z,98533.67
2018-08-31T00:48:14.261Z,98527.62
2018-08-31T00:50:43.878Z,98528.22
2018-08-31T00:53:13.449Z,98532.48
2018-08-31T00:55:43.183Z,98527.80
2018-08-31T00:58:12.796Z,98527.67
2018-08-31T01:00:42.472Z,98519.75
2018-08-31T01:03:12.104Z,98520.94
2018-08-31T01:05:41.811Z,98522.48
2018-08-31T01:08:11.538Z,98521.35
2018-08-31T01:10:41.115Z,98516.92
2018-08-31T01:13:10.738Z,98514.75
2018-08-31T01:15:40.819Z,98525.30
2018-08-31T01:18:10.672Z,98522.67
2018-08-31T01:20:40.363Z,98521.35
2018-08-31T01:23:09.975Z,98526.16
2018-08-31T01:25:39.719Z,98528.17
2018-08-31T01:28:09.263Z,98527.67
2018-08-31T01:30:38.900Z,98526.22
2018-08-31T01:33:08.816Z,98523.44
2018-08-31T01:35:38.426Z,98529.44
2018-08-31T01:38:08.150Z,98524.02
2018-08-31T01:40:37.821Z,98527.40
2018-08-31T01:43:07.852Z,98530.40
2018-08-31T01:45:37.579Z,98519.62
2018-08-31T01:48:07.572Z,98524.90
2018-08-31T01:50:39.710Z,98524.44
2018-08-31T01:53:09.460Z,98522.26
2018-08-31T01:55:39.157Z,98515.66
2018-08-31T01:58:08.985Z,98523.11
2018-08-31T02:00:38.678Z,98517.48
2018-08-31T02:03:08.403Z,98520.48
2018-08-31T02:05:37.947Z,98513.74
2018-08-31T02:08:07.815Z,98507.61
2018-08-31T02:10:37.507Z,98503.66
2018-08-31T02:13:07.255Z,98498.38
2018-08-31T02:15:37.032Z,98488.81
2018-08-31T02:18:06.864Z,98483.67
2018-08-31T02:20:36.527Z,98486.59
2018-08-31T02:23:06.367Z,98487.55
2018-08-31T02:25:36.386Z,98482.77
2018-08-31T02:28:06.595Z,98482.27
2018-08-31T02:30:36.334Z,98477.69
2018-08-31T02:33:06.623Z,98471.30
2018-08-31T02:35:36.163Z,98469.85
2018-08-31T02:38:06.406Z,98459.80
2018-08-31T02:40:35.986Z,98453.20
2018-08-31T02:43:06.313Z,98460.26
2018-08-31T02:45:36.325Z,98448.34
2018-08-31T02:48:06.327Z,98445.06
2018-08-31T02:50:36.019Z,98441.11
2018-08-31T02:53:06.362Z,98442.56
2018-08-31T02:55:35.943Z,98439.24
2018-08-31T02:58:05.864Z,98437.20
2018-08-31T03:00:35.621Z,98428.28
2018-08-31T03:03:05.219Z,98426.83
2018-08-31T03:05:34.886Z,98427.43
2018-08-31T03:08:04.716Z,98429.60
2018-08-31T03:10:34.421Z,98424.93
2018-08-31T03:13:04.169Z,98426.39
2018-08-31T03:15:33.924Z,98424.11
2018-08-31T03:18:04.003Z,98427.23
2018-08-31T03:20:33.802Z,98421.61
2018-08-31T03:23:03.602Z,98417.16
2018-08-31T03:25:33.287Z,98416.11
2018-08-31T03:28:02.992Z,98424.80
2018-08-31T03:30:32.707Z,98414.03
2018-08-31T03:33:02.352Z,98413.48
2018-08-31T03:35:32.024Z,98413.08
2018-08-31T03:38:01.748Z,98423.40
2018-08-31T03:40:31.345Z,98428.45
2018-08-31T03:43:01.374Z,98439.00
2018-08-31T03:45:31.159Z,98436.63
2018-08-31T03:48:00.803Z,98440.77
2018-08-31T03:50:30.506Z,98426.59
2018-08-31T03:53:00.092Z,98436.27
2018-08-31T03:55:29.736Z,98443.05
2018-08-31T03:57:59.411Z,98445.17
2018-08-31T04:00:29.121Z,98439.50
2018-08-31T04:02:58.799Z,98438.95
2018-08-31T04:05:28.439Z,98439.50
2018-08-31T04:07:58.135Z,98453.04
2018-08-31T04:10:27.962Z,98444.77
2018-08-31T04:12:57.551Z,98441.17
2018-08-31T04:15:27.706Z,98433.89
2018-08-31T04:17:57.478Z,98439.36
2018-08-31T04:20:27.120Z,98440.90
2018-08-31T04:22:56.808Z,98435.27
2018-08-31T04:25:26.519Z,98431.45
2018-08-31T04:27:56.319Z,98441.17
2018-08-31T04:30:25.949Z,98437.00
2018-08-31T04:32:55.523Z,98433.59
2018-08-31T04:35:25.167Z,98431.59
2018-08-31T04:37:54.867Z,98432.81
2018-08-31T04:40:24.588Z,98428.28
2018-08-31T04:42:54.472Z,98425.23
2018-08-31T04:45:24.179Z,98424.88
2018-08-31T04:47:54.003Z,98434.09
2018-08-31T04:50:23.773Z,98435.22
2018-08-31T04:52:53.531Z,98431.05
2018-08-31T04:55:23.210Z,98443.41
2018-08-31T04:57:52.887Z,98439.31
2018-08-31T05:00:22.645Z,98434.37
2018-08-31T05:02:52.367Z,98437.64
2018-08-31T05:05:22.160Z,98438.46
2018-08-31T05:07:51.781Z,98436.55
2018-08-31T05:10:21.410Z,98435.22
2018-08-31T05:12:51.101Z,98427.64
2018-08-31T05:15:20.816Z,98433.69
2018-08-31T05:17:50.593Z,98427.91
2018-08-31T05:20:20.228Z,98434.18
2018-08-31T05:22:50.244Z,98433.95
2018-08-31T05:25:20.075Z,98430.63
2018-08-31T05:27:49.635Z,98428.73
2018-08-31T05:30:19.291Z,98432.22
2018-08-31T05:32:48.947Z,98429.00
2018-08-31T05:35:18.475Z,98437.95
2018-08-31T05:37:48.091Z,98433.59
2018-08-31T05:40:17.919Z,98432.63
2018-08-31T05:42:47.695Z,98428.59
2018-08-31T05:45:17.324Z,98427.99
2018-08-31T05:47:47.015Z,98430.27
2018-08-31T05:50:16.910Z,98437.22
2018-08-31T05:52:46.663Z,98437.09
2018-08-31T05:55:16.717Z,98437.91
2018-08-31T05:57:46.475Z,98439.91
2018-08-31T06:00:16.188Z,98433.59
2018-08-31T06:02:45.979Z,98427.59
2018-08-31T06:05:15.606Z,98431.27
2018-08-31T06:07:45.241Z,98432.45
2018-08-31T06:10:14.903Z,98431.00
2018-08-31T06:12:44.648Z,98434.52
2018-08-31T06:15:14.619Z,98430.42
2018-08-31T06:17:44.246Z,98438.86
2018-08-31T06:20:13.833Z,98436.48
2018-08-31T06:22:43.474Z,98436.94
2018-08-31T06:25:13.155Z,98440.69
2018-08-31T06:27:43.174Z,98435.70
2018-08-31T06:30:12.723Z,98442.72
2018-08-31T06:32:42.904Z,98447.25
2018-08-31T06:35:12.864Z,98450.44
2018-08-31T06:37:42.740Z,98451.00
2018-08-31T06:40:13.086Z,98461.41
2018-08-31T06:42:42.859Z,98462.95
2018-08-31T06:45:12.606Z,98462.32
2018-08-31T06:47:42.282Z,98463.03
2018-08-31T06:50:11.998Z,98457.36
2018-08-31T06:52:41.903Z,98465.19
2018-08-31T06:55:11.539Z,98465.31
2018-08-31T06:57:41.770Z,98466.13
2018-08-31T07:00:11.469Z,98469.81
2018-08-31T07:02:41.065Z,98472.67
2018-08-31T07:05:11.306Z,98471.41
2018-08-31T07:07:40.917Z,98472.27
2018-08-31T07:10:11.020Z,98475.38
2018-08-31T07:12:40.815Z,98482.69
2018-08-31T07:15:10.837Z,98477.59
2018-08-31T07:17:40.440Z,98475.19
2018-08-31T07:20:10.051Z,98483.38
2018-08-31T07:22:39.815Z,98484.55
2018-08-31T07:25:09.575Z,98487.91
2018-08-31T07:27:39.322Z,98479.00
2018-08-31T07:30:09.287Z,98485.95
2018-08-31T07:32:39.031Z,98485.00
2018-08-31T07:35:08.787Z,98484.86
2018-08-31T07:37:38.440Z,98485.46
2018-08-31T07:40:08.136Z,98483.23
2018-08-31T07:42:37.838Z,98479.91
2018-08-31T07:45:08.183Z,98478.67
2018-08-31T07:47:37.782Z,98487.33
2018-08-31T07:50:07.624Z,98490.88
2018-08-31T07:52:37.187Z,98492.27
2018-08-31T07:55:06.832Z,98498.59
2018-08-31T07:57:36.500Z,98491.17
2018-08-31T08:00:06.270Z,98491.37
2018-08-31T08:02:36.034Z,98483.31
2018-08-31T08:05:06.018Z,98484.71
2018-08-31T08:07:35.709Z,98478.80
2018-08-31T08:10:05.901Z,98484.08
2018-08-31T08:12:35.659Z,98487.57
2018-08-31T08:15:05.831Z,98480.75
2018-08-31T08:17:35.391Z,98483.03
2018-08-31T08:20:05.264Z,98485.95
2018-08-31T08:22:35.027Z,98492.96
2018-08-31T08:25:04.759Z,98490.41
2018-08-31T08:27:34.331Z,98489.64
2018-08-31T08:30:04.123Z,98493.10
2018-08-31T08:32:33.741Z,98489.09
2018-08-31T08:35:03.703Z,98496.92
2018-08-31T08:37:33.486Z,98498.02
2018-08-31T08:40:03.498Z,98492.33
2018-08-31T08:42:33.219Z,98496.70
2018-08-31T08:45:03.016Z,98505.38
2018-08-31T08:47:32.634Z,98500.52
2018-08-31T08:50:02.383Z,98493.23
2018-08-31T08:52:32.167Z,98494.50
2018-08-31T08:55:01.756Z,98493.59
2018-08-31T08:57:31.667Z,98495.19
2018-08-31T09:00:01.447Z,98500.83
2018-08-31T09:02:31.125Z,98505.66
2018-08-31T09:05:00.894Z,98505.74
2018-08-31T09:07:30.552Z,98507.06
2018-08-31T09:10:00.233Z,98505.47
2018-08-31T09:12:30.339Z,98508.80
2018-08-31T09:15:00.049Z,98508.05
2018-08-31T09:17:29.758Z,98511.59
2018-08-31T09:19:59.453Z,98513.52
2018-08-31T09:22:29.396Z,98514.02
2018-08-31T09:24:59.178Z,98524.70
2018-08-31T09:27:30.870Z,98517.56
2018-08-31T09:30:00.683Z,98527.34
2018-08-31T09:32:31.731Z,98518.11
2018-08-31T09:35:02.318Z,98523.47
2018-08-31T09:37:31.964Z,98520.28
2018-08-31T09:40:01.623Z,98520.33
2018-08-31T09:42:31.282Z,98524.38
2018-08-31T09:45:01.027Z,98521.87
2018-08-31T09:47:30.672Z,98522.64
2018-08-31T09:50:00.425Z,98524.50
2018-08-31T09:52:29.973Z,98516.53
2018-08-31T09:54:59.812Z,98511.17
2018-08-31T09:57:29.809Z,98514.72
2018-08-31T09:59:59.661Z,98514.36
2018-08-31T10:02:39.343Z,98517.41
2018-08-31T10:05:09.547Z,98520.67
2018-08-31T10:07:39.182Z,98522.48
2018-08-31T10:10:09.358Z,98525.48
2018-08-31T10:12:39.080Z,98521.03
2018-08-31T10:15:08.852Z,98521.79
2018-08-31T10:17:38.559Z,98522.01
2018-08-31T10:20:08.588Z,98517.30
2018-08-31T10:22:38.250Z,98520.83
2018-08-31T10:25:07.896Z,98522.72
2018-08-31T10:27:37.597Z,98524.43
2018-08-31T10:30:08.795Z,98522.77
2018-08-31T10:32:39.286Z,98518.75
2018-08-31T10:35:09.160Z,98518.65
2018-08-31T10:37:38.871Z,98525.72
2018-08-31T10:40:08.928Z,98522.94
2018-08-31T10:42:38.629Z,98525.44
2018-08-31T10:45:09.706Z,98517.98
2018-08-31T10:47:39.461Z,98524.54
2018-08-31T10:50:09.804Z,98526.12
2018-08-31T10:52:39.859Z,98522.42
2018-08-31T10:55:09.919Z,98519.17
2018-08-31T10:57:39.535Z,98520.20
2018-08-31T11:00:09.804Z,98519.75
2018-08-31T11:02:40.474Z,98519.61
2018-08-31T11:05:10.176Z,98514.14
2018-08-31T11:07:39.983Z,98516.15
2018-08-31T11:10:10.371Z,98512.19
2018-08-31T11:12:40.061Z,98522.83
2018-08-31T11:15:10.288Z,98519.28
2018-08-31T11:17:40.183Z,98522.19
2018-08-31T11:20:10.175Z,98530.50
2018-08-31T11:22:39.934Z,98529.05
2018-08-31T11:25:09.706Z,98531.36
2018-08-31T11:27:39.348Z,98525.58
2018-08-31T11:30:10.699Z,98527.58
2018-08-31T11:32:40.579Z,98532.30
2018-08-31T11:35:10.133Z,98528.61
2018-08-31T11:37:39.655Z,98524.51
2018-08-31T11:40:09.314Z,98531.66
2018-08-31T11:42:38.868Z,98540.51
2018-08-31T11:45:08.779Z,98538.08
2018-08-31T11:47:38.423Z,98537.11
2018-08-31T11:50:08.150Z,98532.79
2018-08-31T11:52:38.152Z,98547.25
2018-08-31T11:55:07.942Z,98549.46
2018-08-31T11:57:37.885Z,98547.36
2018-08-31T12:00:07.860Z,98553.03
2018-08-31T12:02:37.607Z,98547.34
2018-08-31T12:05:07.747Z,98546.58
2018-08-31T12:07:37.453Z,98545.58
2018-08-31T12:10:07.857Z,98547.12
2018-08-31T12:12:37.453Z,98551.23
2018-08-31T12:15:07.191Z,98545.80
2018-08-31T12:17:36.791Z,98534.92
2018-08-31T12:20:07.756Z,98535.45
2018-08-31T12:22:37.543Z,98542.89
2018-08-31T12:25:08.335Z,98543.24
2018-08-31T12:27:37.888Z,98547.00
2018-08-31T12:30:08.000Z,98544.33
2018-08-31T12:32:37.685Z,98532.59
2018-08-31T12:35:07.986Z,98538.34
2018-08-31T12:37:37.608Z,98535.98
2018-08-31T12:40:08.461Z,98533.84
2018-08-31T12:42:38.277Z,98536.27
2018-08-31T12:45:08.174Z,98536.69
2018-08-31T12:47:37.915Z,98534.83
2018-08-31T12:50:07.614Z,98533.00
2018-08-31T12:52:37.339Z,98525.91
2018-08-31T12:55:07.270Z,98524.20
2018-08-31T12:57:36.859Z,98528.17
2018-08-31T13:00:06.754Z,98527.81
2018-08-31T13:02:36.687Z,98525.05
2018-08-31T13:05:07.300Z,98521.30
2018-08-31T13:07:36.919Z,98527.47
2018-08-31T13:10:06.912Z,98522.44
2018-08-31T13:12:36.588Z,98525.94
2018-08-31T13:15:06.626Z,98527.11
2018-08-31T13:17:36.267Z,98534.11
2018-08-31T13:20:06.149Z,98535.29
2018-08-31T13:22:36.326Z,98536.47
2018-08-31T13:25:06.262Z,98533.68
2018-08-31T13:27:36.274Z,98532.36
2018-08-31T13:30:06.750Z,98529.42
2018-08-31T13:32:36.532Z,98531.10
2018-08-31T13:35:06.917Z,98526.78
2018-08-31T13:37:36.792Z,98531.47
2018-08-31T13:40:06.912Z,98527.00
2018-08-31T13:42:36.730Z,98532.44
2018-08-31T13:45:06.751Z,98528.29
2018-08-31T13:47:36.578Z,98530.29
2018-08-31T13:50:06.597Z,98521.39
2018-08-31T13:52:36.353Z,98527.42
2018-08-31T13:55:06.523Z,98519.06
2018-08-31T13:57:36.209Z,98522.38
2018-08-31T14:00:06.029Z,98513.19
2018-08-31T14:02:36.024Z,98516.72
2018-08-31T14:05:05.875Z,98513.99
2018-08-31T14:07:35.439Z,98512.23
2018-08-31T14:10:06.403Z,98505.53
2018-08-31T14:12:36.300Z,98505.42
2018-08-31T14:15:07.043Z,98505.83
2018-08-31T14:17:36.844Z,98503.91
2018-08-31T14:20:06.560Z,98500.17
2018-08-31T14:22:36.418Z,98500.25
2018-08-31T14:25:06.815Z,98505.83
2018-08-31T14:27:36.830Z,98502.43
2018-08-31T14:30:07.934Z,98499.28
2018-08-31T14:32:37.811Z,98506.10
2018-08-31T14:35:07.407Z,98503.55
2018-08-31T14:37:37.172Z,98506.41
2018-08-31T14:40:07.748Z,98505.59
2018-08-31T14:42:37.496Z,98501.33
2018-08-31T14:45:08.126Z,98509.32
2018-08-31T14:47:37.812Z,98508.34
2018-08-31T14:50:07.931Z,98512.99
2018-08-31T14:52:37.488Z,98514.25
2018-08-31T14:55:07.304Z,98514.12
2018-08-31T14:57:36.867Z,98510.15
2018-08-31T15:00:07.095Z,98505.67
2018-08-31T15:02:36.748Z,98505.38
2018-08-31T15:05:06.398Z,98503.38
2018-08-31T15:07:35.943Z,98510.47
2018-08-31T15:10:05.982Z,98504.86
2018-08-31T15:12:36.020Z,98508.17
2018-08-31T15:15:05.937Z,98507.59
2018-08-31T15:17:35.470Z,98505.55
2018-08-31T15:20:05.155Z,98512.72
2018-08-31T15:22:34.721Z,98508.90
2018-08-31T15:25:04.447Z,98508.17
2018-08-31T15:27:34.131Z,98504.05
2018-08-31T15:30:03.760Z,98508.05
2018-08-31T15:32:33.358Z,98506.05
2018-08-31T15:35:03.027Z,98501.72
2018-08-31T15:37:32.899Z,98500.37
2018-08-31T15:40:02.481Z,98497.08
2018-08-31T15:42:32.046Z,98498.20
2018-08-31T15:45:01.760Z,98497.53
2018-08-31T15:47:31.963Z,98496.41
2018-08-31T15:50:01.571Z,98494.59
2018-08-31T15:52:31.138Z,98499.94
2018-08-31T15:55:00.751Z,98501.05
2018-08-31T15:57:30.451Z,98501.55
2018-08-31T16:00:00.108Z,98501.30
2018-08-31T16:02:29.781Z,98505.91
2018-08-31T16:04:59.469Z,98498.13
2018-08-31T16:07:29.138Z,98496.56
2018-08-31T16:09:58.660Z,98505.33
2018-08-31T16:12:28.218Z,98507.30
2018-08-31T16:14:57.776Z,98504.80
2018-08-31T16:17:27.371Z,98512.20
2018-08-31T16:19:56.964Z,98515.70
2018-08-31T16:22:26.576Z,98508.06
2018-08-31T16:24:56.131Z,98507.31
2018-08-31T16:27:25.732Z,98505.48
2018-08-31T16:29:55.310Z,98506.81
2018-08-31T16:32:24.886Z,98508.50
2018-08-31T16:34:54.425Z,98509.19
2018-08-31T16:37:23.978Z,98506.05
2018-08-31T16:39:53.862Z,98518.33
2018-08-31T16:42:23.487Z,98510.08
2018-08-31T16:44:53.066Z,98514.36
2018-08-31T16:47:22.896Z,98512.28
2018-08-31T16:49:52.607Z,98514.64
2018-08-31T16:52:22.854Z,98517.46
2018-08-31T16:54:52.386Z,98525.81
2018-08-31T16:57:21.979Z,98524.42
2018-08-31T16:59:51.519Z,98518.54
2018-08-31T17:02:21.260Z,98523.68
2018-08-31T17:04:50.838Z,98528.03
2018-08-31T17:07:20.352Z,98528.10
2018-08-31T17:09:49.940Z,98526.78
2018-08-31T17:12:19.479Z,98526.72
2018-08-31T17:14:49.028Z,98527.57
2018-08-31T17:17:18.587Z,98528.83
2018-08-31T17:19:48.168Z,98525.65
2018-08-31T17:22:17.715Z,98530.58
2018-08-31T17:24:47.365Z,98534.83
2018-08-31T17:27:22.088Z,98534.83
2018-08-31T17:29:51.752Z,98536.15
2018-08-31T17:32:26.927Z,98539.44
2018-08-31T17:35:01.872Z,98529.16
2018-08-31T17:37:33.090Z,98529.30
2018-08-31T17:40:02.616Z,98532.91
2018-08-31T17:42:37.206Z,98536.40
2018-08-31T17:45:07.839Z,98539.87
2018-08-31T17:47:37.444Z,98552.26
2018-08-31T17:50:09.102Z,98554.75
2018-08-31T17:52:38.679Z,98561.44
2018-08-31T17:55:08.294Z,98559.22
2018-08-31T17:57:38.003Z,98555.04
2018-08-31T18:00:08.724Z,98558.18
2018-08-31T18:02:38.380Z,98558.11
2018-08-31T18:05:08.078Z,98554.42
2018-08-31T18:07:37.656Z,98561.17
2018-08-31T18:10:07.748Z,98558.77
2018-08-31T18:12:37.499Z,98557.88
2018-08-31T18:15:07.280Z,98557.19
2018-08-31T18:17:37.145Z,98558.08
2018-08-31T18:20:06.899Z,98565.45
2018-08-31T18:22:36.492Z,98565.95
2018-08-31T18:25:06.423Z,98566.77
2018-08-31T18:27:36.054Z,98570.38
2018-08-31T18:30:05.742Z,98569.06
2018-08-31T18:32:40.893Z,98581.08
2018-08-31T18:35:05.375Z,98582.00
2018-08-31T18:37:35.580Z,98589.70
2018-08-31T18:40:06.196Z,98589.12
2018-08-31T18:42:36.053Z,98597.31
2018-08-31T18:45:05.854Z,98594.45
2018-08-31T18:47:35.661Z,98598.22
2018-08-31T18:50:05.833Z,98598.50
2018-08-31T18:52:35.674Z,98603.42
2018-08-31T18:55:05.915Z,98603.56
2018-08-31T18:57:35.511Z,98608.78
2018-08-31T19:00:05.344Z,98613.20
2018-08-31T19:02:35.153Z,98613.16
2018-08-31T19:05:04.947Z,98618.89
2018-08-31T19:07:34.634Z,98619.80
2018-08-31T19:10:04.275Z,98626.27
2018-08-31T19:12:33.961Z,98628.41
2018-08-31T19:15:03.604Z,98636.95
2018-08-31T19:17:33.568Z,98637.59
2018-08-31T19:20:03.420Z,98642.38
2018-08-31T19:22:33.315Z,98638.27
2018-08-31T19:25:03.054Z,98638.30
2018-08-31T19:27:33.044Z,98640.85
2018-08-31T19:30:02.843Z,98640.03
2018-08-31T19:32:32.456Z,98641.39
2018-08-31T19:35:02.159Z,98645.08
2018-08-31T19:37:31.860Z,98645.34
2018-08-31T19:40:01.528Z,98647.56
2018-08-31T19:42:31.308Z,98653.95
2018-08-31T19:45:01.032Z,98654.78
2018-08-31T19:47:31.142Z,98655.41
2018-08-31T19:50:00.736Z,98654.36
2018-08-31T19:52:30.288Z,98652.12
2018-08-31T19:55:00.654Z,98653.47
2018-08-31T19:57:30.862Z,98657.95
2018-08-31T20:00:00.618Z,98654.30
2018-08-31T20:02:30.990Z,98655.28
2018-08-31T20:05:00.731Z,98661.17
2018-08-31T20:07:30.455Z,98661.30
2018-08-31T20:10:00.281Z,98664.08
2018-08-31T20:12:29.987Z,98663.51
2018-08-31T20:14:59.656Z,98662.58
2018-08-31T20:17:29.419Z,98663.17
2018-08-31T20:19:59.171Z,98667.75
2018-08-31T20:22:29.134Z,98668.38
2018-08-31T20:25:00.456Z,98666.92
2018-08-31T20:27:30.063Z,98667.38
2018-08-31T20:29:59.746Z,98665.61
2018-08-31T20:32:29.711Z,98671.95
2018-08-31T20:34:59.272Z,98673.05
2018-08-31T20:37:29.103Z,98675.55
2018-08-31T20:39:59.024Z,98674.03
2018-08-31T20:42:28.796Z,98678.57
2018-08-31T20:44:59.240Z,98673.30
2018-08-31T20:47:28.868Z,98669.73
2018-08-31T20:49:58.585Z,98668.78
2018-08-31T20:52:28.281Z,98668.39
2018-08-31T20:54:57.883Z,98667.05
2018-08-31T20:57:27.747Z,98673.38
2018-08-31T20:59:58.019Z,98671.94
2018-08-31T21:02:27.898Z,98668.44
2018-08-31T21:04:57.659Z,98671.44
2018-08-31T21:07:27.632Z,98670.13
2018-08-31T21:09:57.378Z,98672.39
2018-08-31T21:12:27.085Z,98671.80
2018-08-31T21:14:56.793Z,98674.52
2018-08-31T21:17:26.607Z,98671.28
2018-08-31T21:19:56.194Z,98666.84
2018-08-31T21:22:25.935Z,98673.43
2018-08-31T21:24:55.616Z,98672.47
2018-08-31T21:27:25.441Z,98676.89
2018-08-31T21:29:55.248Z,98673.43
2018-08-31T21:32:25.091Z,98676.89
2018-08-31T21:34:54.928Z,98674.75
2018-08-31T21:37:24.635Z,98683.48
2018-08-31T21:39:54.267Z,98679.20
2018-08-31T21:42:23.907Z,98683.41
2018-08-31T21:44:53.791Z,98682.48
2018-08-31T21:47:23.711Z,98681.42
2018-08-31T21:49:53.413Z,98689.91
2018-08-31T21:52:23.246Z,98690.28
2018-08-31T21:54:53.139Z,98685.96
2018-08-31T21:57:22.883Z,98689.09
2018-08-31T21:59:53.036Z,98691.03
2018-08-31T22:02:22.562Z,98691.86
2018-08-31T22:04:52.180Z,98698.20
2018-08-31T22:07:22.007Z,98689.34
2018-08-31T22:09:51.728Z,98691.16
2018-08-31T22:12:21.537Z,98685.65
2018-08-31T22:14:51.167Z,98688.28
2018-08-31T22:17:20.830Z,98690.23
2018-08-31T22:19:51.707Z,98687.72
2018-08-31T22:22:22.230Z,98686.40
2018-08-31T22:24:51.808Z,98693.12
2018-08-31T22:27:23.155Z,98688.44
2018-08-31T22:29:52.843Z,98687.48
2018-08-31T22:32:22.566Z,98684.15
2018-08-31T22:34:52.188Z,98675.75
2018-08-31T22:37:21.886Z,98684.02
2018-08-31T22:39:51.442Z,98675.27
2018-08-31T22:42:21.248Z,98681.39
2018-08-31T22:44:51.052Z,98680.53
2018-08-31T22:47:20.632Z,98681.84
2018-08-31T22:49:50.355Z,98683.78
2018-08-31T22:52:19.972Z,98678.52
2018-08-31T22:54:49.906Z,98679.21
2018-08-31T22:57:19.574Z,98673.61
2018-08-31T22:59:49.142Z,98690.37
2018-08-31T23:02:18.832Z,98695.64
2018-08-31T23:04:48.411Z,98682.34
2018-08-31T23:07:23.286Z,98686.16
2018-08-31T23:09:52.899Z,98676.94
2018-08-31T23:12:22.561Z,98677.44
2018-08-31T23:14:52.218Z,98665.58
2018-08-31T23:17:25.923Z,98669.53
2018-08-31T23:19:56.011Z,98669.98
2018-08-31T23:22:26.216Z,98668.80
2018-08-31T23:24:58.072Z,98673.25
2018-08-31T23:27:28.311Z,98674.92
2018-08-31T23:29:57.966Z,98680.78
2018-08-31T23:32:28.003Z,98676.14
2018-08-31T23:34:57.663Z,98680.70
2018-08-31T23:37:27.295Z,98672.80
2018-08-31T23:39:56.915Z,98667.53
2018-08-31T23:42:26.739Z,98667.53
2018-08-31T23:44:56.302Z,98669.67
2018-08-31T23:47:26.043Z,98659.14
2018-08-31T23:49:55.578Z,98658.81
2018-08-31T23:52:25.157Z,98659.76
2018-08-31T23:54:54.687Z,98660.37
2018-08-31T23:57:24.221Z,98668.28
2018-08-31T23:59:53.761Z,98667.68
